Decoded Metar for KPLN (PELLSTON in MI, USA) (IATA:PLN) | Meteo·Mobile Aviation Weather
aviador You're here:

KPLN Decoded Metar

PELLSTON in MI, USA
Report Time2018-12-18 16:54:00
UTC Time2018-12-18 17:26:10
Flight Rules vfr VFR
Wind210° at 08 kt
W.Decomp.*RWY 23: 7.8 kt HW 1.9 kt LCW
RWY 14: 1.9 kt HW 7.8 kt RCW
W.Rank210° ranks 17
Current wind is below 210° avg. (8.0)
Visibility9999 m
Phenomena:N/A
Clouds:N/A
Expected CloudBase > 2,000 ft AGL from Temp-Dew spread
CeilingNone
Temp-2°C (ISA -16)
Dew Point-7°C (69% RH)
AAT-7.7°C
QNH1022 hPa
Density Alt-1,453 ft
Elevation712 ft
Report Wrong Elevation
Raw Report
KPLN 181654Z AUTO 21008KT 10SM CLR M02/M07 A3017 RMK AO2 SLP228
T10221072 $=

Extra information for KPLN:More info

Metar Taf Metar & Taf Last 4 Metars F.Rules Stats Wind Profile Meteogram Temp Stats Airport Information Weather charts Add Link Nearby VenuesMetar ALERT Operation Metar Decoded Social comments

AIRNAV info for KPLN